createdAt,value
2023-05-10T00:04:44.138Z,81
2023-05-10T00:09:46.226Z,81
2023-05-10T00:14:48.203Z,82
2023-05-10T00:19:50.354Z,82
2023-05-10T00:24:51.897Z,81
2023-05-10T00:29:53.634Z,81
2023-05-10T00:34:55.568Z,82
2023-05-10T00:39:56.958Z,82
2023-05-10T00:44:58.975Z,82
2023-05-10T00:50:00.293Z,82
2023-05-10T00:55:02.009Z,82
2023-05-10T01:00:03.212Z,82
2023-05-10T01:05:04.643Z,82
2023-05-10T01:10:06.093Z,83
2023-05-10T01:15:07.635Z,82
2023-05-10T01:20:09.605Z,83
2023-05-10T01:25:10.891Z,83
2023-05-10T01:30:15.204Z,83
2023-05-10T01:35:14.389Z,82
2023-05-10T01:40:16.598Z,83
2023-05-10T01:45:18.368Z,83
2023-05-10T01:50:19.721Z,84
2023-05-10T01:55:21.513Z,84
2023-05-10T02:00:22.846Z,83
2023-05-10T02:05:24.888Z,83
2023-05-10T02:10:26.395Z,83
2023-05-10T02:15:27.904Z,83
2023-05-10T02:20:29.801Z,83
2023-05-10T02:25:31.132Z,83
2023-05-10T02:30:32.403Z,83
2023-05-10T02:35:33.853Z,83
2023-05-10T02:40:35.588Z,83
2023-05-10T02:45:37.759Z,83
2023-05-10T02:50:39.441Z,83
2023-05-10T02:55:40.751Z,83
2023-05-10T03:00:42.074Z,83
2023-05-10T03:05:43.811Z,83
2023-05-10T03:10:45.603Z,83
2023-05-10T03:15:47.283Z,83
2023-05-10T03:20:48.972Z,83
2023-05-10T03:25:50.930Z,83
2023-05-10T03:30:52.836Z,84
2023-05-10T03:35:54.019Z,84
2023-05-10T03:40:56.166Z,84
2023-05-10T03:45:58.225Z,84
2023-05-10T03:51:00.175Z,84
2023-05-10T03:56:01.374Z,84
2023-05-10T04:01:03.539Z,85
2023-05-10T04:06:05.242Z,85
2023-05-10T04:11:06.527Z,84
2023-05-10T04:16:08.270Z,84
2023-05-10T04:21:09.480Z,85
2023-05-10T04:26:11.260Z,85
2023-05-10T04:31:12.792Z,85
2023-05-10T04:36:14.222Z,85
2023-05-10T04:41:15.923Z,85
2023-05-10T04:46:17.565Z,86
2023-05-10T04:51:19.516Z,85
2023-05-10T04:56:20.902Z,86
2023-05-10T05:01:22.389Z,86
2023-05-10T05:06:24.073Z,86
2023-05-10T05:11:26.006Z,84
2023-05-10T05:16:28.051Z,83
2023-05-10T05:21:29.707Z,83
2023-05-10T05:26:31.423Z,81
2023-05-10T05:31:32.947Z,81
2023-05-10T05:36:36.479Z,81
2023-05-10T05:41:36.186Z,81
2023-05-10T05:46:37.504Z,81
2023-05-10T05:51:39.487Z,80
2023-05-10T05:56:41.151Z,82
2023-05-10T06:01:43.290Z,82
2023-05-10T06:06:44.671Z,82
2023-05-10T06:11:46.371Z,81
2023-05-10T06:16:48.542Z,81
2023-05-10T06:21:51.228Z,81
2023-05-10T06:26:51.650Z,79
2023-05-10T06:31:53.147Z,79
2023-05-10T06:36:54.385Z,79
2023-05-10T06:41:55.564Z,77
2023-05-10T06:46:56.961Z,77
2023-05-10T06:51:59.054Z,78
2023-05-10T06:57:02.506Z,79
2023-05-10T07:02:02.619Z,77
2023-05-10T07:07:04.073Z,76
2023-05-10T07:12:05.614Z,75
2023-05-10T07:17:07.104Z,73
2023-05-10T07:22:08.561Z,74
2023-05-10T07:27:09.887Z,74
2023-05-10T07:32:11.909Z,72
2023-05-10T07:37:13.598Z,72
2023-05-10T07:42:15.510Z,70
2023-05-10T07:47:16.875Z,69
2023-05-10T07:52:18.410Z,67
2023-05-10T07:57:20.092Z,67
2023-05-10T08:02:21.867Z,64
2023-05-10T08:07:23.663Z,64
2023-05-10T08:12:24.978Z,63
2023-05-10T08:17:26.865Z,63
2023-05-10T08:22:29.023Z,63
2023-05-10T08:27:30.191Z,61
2023-05-10T08:32:31.764Z,62
2023-05-10T08:37:33.872Z,63
2023-05-10T08:42:36.035Z,62
2023-05-10T08:47:37.268Z,60
2023-05-10T08:52:44.082Z,58
2023-05-10T08:57:41.084Z,57
2023-05-10T09:02:42.767Z,55
2023-05-10T09:07:44.864Z,53
2023-05-10T09:12:46.589Z,50
2023-05-10T09:17:48.794Z,49
2023-05-10T09:22:50.117Z,47
2023-05-10T09:27:51.591Z,48
2023-05-10T09:32:53.404Z,49
2023-05-10T09:37:54.583Z,50
2023-05-10T09:42:56.610Z,50
2023-05-10T09:47:58.474Z,51
2023-05-10T09:53:00.560Z,51
2023-05-10T09:58:02.118Z,53
2023-05-10T10:03:03.385Z,53
2023-05-10T10:08:04.644Z,53
2023-05-10T10:13:06.690Z,53
2023-05-10T10:18:08.818Z,52
2023-05-10T10:23:09.895Z,53
2023-05-10T10:28:11.615Z,53
2023-05-10T10:33:20.438Z,53
2023-05-10T10:38:14.786Z,53
2023-05-10T10:43:16.292Z,54
2023-05-10T11:08:30.870Z,56
2023-05-10T11:13:32.871Z,56
2023-05-10T11:18:34.125Z,56
2023-05-10T12:13:50.857Z,50
2023-05-10T12:28:54.953Z,53
2023-05-10T12:38:58.516Z,54
2023-05-10T13:04:07.329Z,60
2023-05-10T13:09:09.086Z,61
2023-05-10T13:24:14.836Z,63
2023-05-10T13:44:22.141Z,65
2023-05-10T13:49:23.632Z,65
2023-05-10T13:54:25.231Z,64
2023-05-10T13:59:26.585Z,66
2023-05-10T14:04:28.536Z,66
2023-05-10T14:09:29.738Z,66
2023-05-10T14:14:31.677Z,68
2023-05-10T14:19:33.556Z,68
2023-05-10T14:24:34.724Z,69
2023-05-10T14:29:36.912Z,67
2023-05-10T14:34:38.917Z,68
2023-05-10T14:39:40.621Z,70
2023-05-10T14:44:42.602Z,69
2023-05-10T14:49:44.256Z,69
2023-05-10T14:54:46.440Z,70
2023-05-10T14:59:48.402Z,70
2023-05-10T15:04:50.271Z,70
2023-05-10T15:09:52.123Z,70
2023-05-10T15:14:54.230Z,71
2023-05-10T15:19:55.734Z,71
2023-05-10T15:24:57.897Z,71
2023-05-10T15:29:59.793Z,69
2023-05-10T15:35:01.109Z,70
2023-05-10T15:40:02.324Z,71
2023-05-10T15:45:04.151Z,71
2023-05-10T15:50:05.442Z,70
2023-05-10T15:55:06.983Z,70
2023-05-10T16:00:08.286Z,71
2023-05-10T16:05:09.476Z,71
2023-05-10T16:10:10.722Z,70
2023-05-10T16:15:12.672Z,71
2023-05-10T16:20:14.185Z,70
2023-05-10T16:25:16.091Z,70
2023-05-10T16:30:18.177Z,71
2023-05-10T16:35:20.045Z,72
2023-05-10T16:40:21.421Z,72
2023-05-10T16:45:23.160Z,72
2023-05-10T16:50:24.718Z,73
2023-05-10T16:55:26.570Z,73
2023-05-10T17:00:28.402Z,73
2023-05-10T17:05:30.150Z,72
2023-05-10T17:10:32.313Z,73
2023-05-10T17:15:34.304Z,73
2023-05-10T17:20:35.803Z,74
2023-05-10T17:25:37.418Z,76
2023-05-10T17:30:39.186Z,76
2023-05-10T17:35:41.172Z,77
2023-05-10T17:40:43.077Z,78
2023-05-10T17:45:45.091Z,78
2023-05-10T17:50:46.996Z,77
2023-05-10T17:55:48.666Z,76
2023-05-10T18:00:50.303Z,76
2023-05-10T18:05:52.177Z,76
2023-05-10T18:10:53.940Z,77
2023-05-10T18:15:55.830Z,75
2023-05-10T18:20:57.441Z,75
2023-05-10T18:25:58.808Z,76
2023-05-10T18:31:00.073Z,76
2023-05-10T18:36:01.808Z,77
2023-05-10T18:41:03.505Z,78
2023-05-10T18:46:05.113Z,78
2023-05-10T18:51:06.873Z,79
2023-05-10T18:56:08.819Z,80
2023-05-10T19:01:10.322Z,78
2023-05-10T19:06:12.122Z,78
2023-05-10T19:11:13.999Z,79
2023-05-10T19:16:15.318Z,79
2023-05-10T19:21:16.983Z,78
2023-05-10T19:26:18.494Z,78
2023-05-10T19:31:20.485Z,79
2023-05-10T19:36:22.044Z,79
2023-05-10T19:41:24.179Z,78
2023-05-10T19:46:25.433Z,79
2023-05-10T19:51:26.574Z,78
2023-05-10T19:56:28.128Z,78
2023-05-10T20:01:30.314Z,79
2023-05-10T20:06:31.740Z,79
2023-05-10T20:11:33.506Z,79
2023-05-10T20:16:35.192Z,79
2023-05-10T20:21:36.801Z,79
2023-05-10T20:26:38.539Z,79
2023-05-10T20:31:40.976Z,80
2023-05-10T20:36:41.468Z,80
2023-05-10T20:41:43.149Z,79
2023-05-10T20:46:44.629Z,80
2023-05-10T20:51:46.246Z,80
2023-05-10T20:56:48.238Z,80
2023-05-10T21:01:50.013Z,79
2023-05-10T21:06:53.360Z,80
2023-05-10T21:11:53.481Z,80
2023-05-10T21:16:55.288Z,80
2023-05-10T21:21:57.142Z,81
2023-05-10T21:26:58.337Z,81
2023-05-10T21:32:00.099Z,81
2023-05-10T21:37:01.557Z,81
2023-05-10T21:42:03.797Z,81
2023-05-10T21:47:05.266Z,81
2023-05-10T21:52:07.129Z,80
2023-05-10T21:57:09.026Z,80
2023-05-10T22:02:10.937Z,81
2023-05-10T22:07:12.177Z,81
2023-05-10T22:12:14.093Z,81
2023-05-10T22:17:16.217Z,80
2023-05-10T22:22:18.047Z,80
2023-05-10T22:27:19.753Z,79
2023-05-10T22:32:21.078Z,79
2023-05-10T22:37:22.508Z,80
2023-05-10T22:42:23.754Z,79
2023-05-10T22:47:25.738Z,80
2023-05-10T22:52:27.300Z,80
2023-05-10T22:57:29.251Z,81
2023-05-10T23:02:30.578Z,81
2023-05-10T23:07:32.153Z,81
2023-05-10T23:12:34.165Z,81
2023-05-10T23:17:35.901Z,81
2023-05-10T23:22:37.827Z,81
2023-05-10T23:27:39.361Z,81
2023-05-10T23:32:40.665Z,80
2023-05-10T23:37:41.960Z,81
2023-05-10T23:42:43.252Z,81
2023-05-10T23:47:45.462Z,82
2023-05-10T23:52:47.178Z,82
2023-05-10T23:57:48.643Z,82
